createdAt,value
2022-11-22T00:01:48.591Z,24.10
2022-11-22T00:04:17.503Z,21.00
2022-11-22T00:06:46.952Z,22.20
2022-11-22T00:09:15.345Z,23.60
2022-11-22T00:11:43.800Z,25.60
2022-11-22T00:14:16.945Z,25.70
2022-11-22T00:16:45.388Z,25.80
2022-11-22T00:19:20.071Z,25.90
2022-11-22T00:21:48.480Z,26.40
2022-11-22T00:24:16.845Z,25.50
2022-11-22T00:26:45.367Z,26.30
2022-11-22T00:29:14.949Z,27.90
2022-11-22T00:31:43.384Z,25.20
2022-11-22T00:34:11.833Z,26.90
2022-11-22T00:36:40.185Z,24.60
2022-11-22T00:39:08.542Z,22.40
2022-11-22T00:41:36.908Z,24.40
2022-11-22T00:44:30.620Z,26.60
2022-11-22T00:46:59.086Z,29.60
2022-11-22T00:49:27.964Z,28.60
2022-11-22T00:51:56.561Z,27.50
2022-11-22T00:54:25.011Z,28.80
2022-11-22T00:56:53.446Z,32.30
2022-11-22T00:59:21.828Z,33.20
2022-11-22T01:01:50.278Z,32.60
2022-11-22T01:04:18.691Z,33.10
2022-11-22T01:06:47.259Z,30.50
2022-11-22T01:09:22.182Z,32.10
2022-11-22T01:11:51.565Z,27.00
2022-11-22T01:14:20.865Z,27.40
2022-11-22T01:16:49.373Z,28.80
2022-11-22T01:19:17.793Z,28.90
2022-11-22T01:21:46.231Z,30.10
2022-11-22T01:24:14.674Z,27.50
2022-11-22T01:26:43.147Z,29.40
2022-11-22T01:29:11.594Z,28.40
2022-11-22T01:31:40.001Z,28.80
2022-11-22T01:34:08.436Z,32.70
2022-11-22T01:36:36.904Z,30.10
2022-11-22T01:39:05.336Z,26.90
2022-11-22T01:41:33.833Z,27.80
2022-11-22T01:44:29.580Z,27.60
2022-11-22T01:47:11.086Z,25.40
2022-11-22T01:49:48.410Z,27.10
2022-11-22T01:52:20.108Z,25.00
2022-11-22T01:54:57.541Z,26.40
2022-11-22T01:57:30.428Z,25.50
2022-11-22T02:00:04.829Z,28.00
2022-11-22T02:02:35.198Z,30.70
2022-11-22T02:05:10.127Z,28.00
2022-11-22T02:07:53.142Z,28.50
2022-11-22T02:10:25.618Z,29.10
2022-11-22T02:12:58.308Z,31.10
2022-11-22T02:15:26.904Z,30.20
2022-11-22T02:17:57.813Z,30.20
2022-11-22T02:20:26.236Z,29.70
2022-11-22T02:23:09.524Z,28.10
2022-11-22T02:25:37.892Z,29.40
2022-11-22T02:28:06.705Z,29.20
2022-11-22T02:30:37.116Z,28.00
2022-11-22T02:33:05.514Z,27.30
2022-11-22T02:35:34.759Z,28.20
2022-11-22T02:38:22.333Z,23.80
2022-11-22T02:40:56.370Z,26.80
2022-11-22T02:43:40.473Z,22.30
2022-11-22T02:46:12.201Z,25.40
2022-11-22T02:48:44.749Z,21.80
2022-11-22T02:51:17.329Z,24.70
2022-11-22T02:53:47.795Z,23.60
2022-11-22T02:56:17.362Z,24.20
2022-11-22T02:58:46.268Z,26.00
2022-11-22T03:01:14.783Z,24.00
2022-11-22T03:03:43.212Z,25.10
2022-11-22T03:06:11.762Z,23.30
2022-11-22T03:08:40.164Z,23.90
2022-11-22T03:11:08.628Z,24.70
2022-11-22T03:13:37.107Z,26.40
2022-11-22T03:16:05.804Z,25.70
2022-11-22T03:18:35.364Z,23.50
2022-11-22T03:21:09.024Z,24.20
2022-11-22T03:23:37.505Z,25.80
2022-11-22T03:26:10.352Z,24.30
2022-11-22T03:28:38.785Z,24.10
2022-11-22T03:31:08.366Z,24.20
2022-11-22T03:33:36.762Z,22.10
2022-11-22T03:36:05.509Z,22.90
2022-11-22T03:38:35.598Z,19.80
2022-11-22T03:41:03.941Z,19.00
2022-11-22T03:44:29.740Z,21.80
2022-11-22T03:46:58.099Z,21.80
2022-11-22T03:49:26.538Z,22.20
2022-11-22T03:51:54.988Z,21.50
2022-11-22T03:54:23.348Z,20.70
2022-11-22T03:56:51.730Z,23.00
2022-11-22T03:59:20.130Z,23.00
2022-11-22T04:01:48.513Z,20.50
2022-11-22T04:04:17.052Z,20.00
2022-11-22T04:06:45.428Z,22.00
2022-11-22T04:09:13.844Z,23.10
2022-11-22T04:11:42.286Z,20.20
2022-11-22T04:14:31.562Z,22.80
2022-11-22T04:16:59.920Z,23.00
2022-11-22T04:19:28.702Z,22.20
2022-11-22T04:21:57.454Z,22.90
2022-11-22T04:24:44.172Z,24.00
2022-11-22T04:27:12.533Z,23.60
2022-11-22T04:29:40.902Z,22.60
2022-11-22T04:32:29.622Z,19.60
2022-11-22T04:34:58.083Z,19.90
2022-11-22T04:37:26.416Z,23.40
2022-11-22T04:39:54.807Z,23.30
2022-11-22T04:43:13.369Z,22.70
2022-11-22T04:45:42.039Z,25.60
2022-11-22T04:48:12.631Z,25.80
2022-11-22T04:51:00.646Z,22.20
2022-11-22T04:53:30.165Z,23.80
2022-11-22T04:55:58.855Z,23.20
2022-11-22T04:58:27.234Z,19.30
2022-11-22T05:00:55.629Z,21.60
2022-11-22T05:03:24.136Z,23.50
2022-11-22T05:05:52.566Z,23.80
2022-11-22T05:08:21.393Z,24.20
2022-11-22T05:10:58.760Z,24.90
2022-11-22T05:13:28.700Z,23.90
2022-11-22T05:15:58.009Z,23.90
2022-11-22T05:18:28.671Z,26.20
2022-11-22T05:20:57.685Z,21.30
2022-11-22T05:23:44.751Z,22.50
2022-11-22T05:26:13.117Z,24.60
2022-11-22T05:28:41.586Z,23.90
2022-11-22T05:31:12.469Z,23.60
2022-11-22T05:33:42.897Z,23.60
2022-11-22T05:36:12.751Z,24.80
2022-11-22T05:38:41.258Z,24.40
2022-11-22T05:41:13.282Z,23.10
2022-11-22T05:43:57.812Z,21.10
2022-11-22T05:46:30.944Z,24.00
2022-11-22T05:48:59.431Z,22.90
2022-11-22T05:51:34.826Z,24.60
2022-11-22T05:54:04.379Z,21.60
2022-11-22T05:56:32.820Z,22.60
2022-11-22T05:59:01.361Z,20.40
2022-11-22T06:01:29.672Z,22.60
2022-11-22T06:03:58.576Z,24.40
2022-11-22T06:06:27.000Z,22.30
2022-11-22T06:08:55.519Z,23.10
2022-11-22T06:11:26.909Z,21.80
2022-11-22T06:13:58.360Z,27.30
2022-11-22T06:16:27.933Z,24.60
2022-11-22T06:18:57.266Z,24.70
2022-11-22T06:21:26.875Z,22.50
2022-11-22T06:23:56.146Z,24.80
2022-11-22T06:26:26.823Z,25.30
2022-11-22T06:28:55.752Z,23.50
2022-11-22T06:31:26.635Z,27.70
2022-11-22T06:33:57.923Z,26.80
2022-11-22T06:36:35.676Z,28.30
2022-11-22T06:39:05.066Z,25.10
2022-11-22T06:41:36.869Z,27.60
2022-11-22T06:44:08.229Z,24.90
2022-11-22T06:46:38.059Z,27.60
2022-11-22T06:49:06.509Z,28.60
2022-11-22T06:51:35.134Z,27.20
2022-11-22T06:54:03.528Z,27.40
2022-11-22T06:56:37.021Z,30.80
2022-11-22T06:59:06.896Z,28.70
2022-11-22T07:01:36.493Z,29.70
2022-11-22T07:04:05.580Z,29.80
2022-11-22T07:06:36.313Z,28.70
2022-11-22T07:09:07.899Z,30.40
2022-11-22T07:11:36.545Z,29.10
2022-11-22T07:14:08.682Z,30.00
2022-11-22T07:16:39.193Z,25.90
2022-11-22T07:19:08.408Z,31.50
2022-11-22T07:21:37.887Z,29.80
2022-11-22T07:24:07.570Z,27.20
2022-11-22T07:26:36.031Z,27.90
2022-11-22T07:29:04.768Z,29.40
2022-11-22T07:31:33.411Z,26.70
2022-11-22T07:34:01.903Z,27.30
2022-11-22T07:36:30.671Z,23.20
2022-11-22T07:38:59.200Z,26.70
2022-11-22T07:41:27.589Z,26.60
2022-11-22T07:43:56.212Z,26.90
2022-11-22T07:46:30.004Z,25.20
2022-11-22T07:51:27.306Z,26.60
2022-11-22T07:53:56.997Z,27.20
2022-11-22T07:56:25.569Z,25.80
2022-11-22T07:58:53.939Z,27.10
2022-11-22T08:01:22.688Z,20.10
2022-11-22T08:03:51.232Z,23.60
2022-11-22T08:06:19.549Z,17.20
2022-11-22T08:08:48.023Z,23.60
2022-11-22T08:11:16.862Z,19.70
2022-11-22T08:13:45.292Z,23.20
2022-11-22T08:16:16.257Z,18.70
2022-11-22T08:18:49.398Z,21.30
2022-11-22T08:21:19.104Z,21.10
2022-11-22T08:23:48.571Z,21.20
2022-11-22T08:26:18.545Z,21.50
2022-11-22T08:28:47.020Z,18.80
2022-11-22T08:31:20.182Z,14.40
2022-11-22T08:33:49.110Z,19.40
2022-11-22T08:36:17.569Z,20.30
2022-11-22T08:38:45.953Z,20.10
2022-11-22T08:41:14.539Z,18.50
2022-11-22T08:43:43.132Z,18.70
2022-11-22T08:46:11.817Z,18.30
2022-11-22T08:48:40.246Z,21.40
2022-11-22T08:51:10.494Z,19.00
2022-11-22T08:53:41.300Z,20.20
2022-11-22T08:56:13.540Z,20.80
2022-11-22T08:58:42.591Z,20.30
2022-11-22T09:01:16.865Z,17.00
2022-11-22T09:03:45.825Z,20.30
2022-11-22T09:09:43.168Z,19.50
2022-11-22T09:11:55.357Z,19.60
2022-11-22T09:14:23.718Z,20.30
2022-11-22T09:16:52.215Z,20.30
2022-11-22T09:19:20.530Z,21.30
2022-11-22T09:21:49.114Z,21.80
2022-11-22T09:24:17.513Z,20.40
2022-11-22T09:26:45.863Z,22.80
2022-11-22T09:29:16.045Z,20.40
2022-11-22T09:31:44.583Z,22.80
2022-11-22T09:34:12.915Z,21.70
2022-11-22T09:36:41.398Z,22.30
2022-11-22T09:39:09.945Z,18.70
2022-11-22T09:41:50.246Z,19.30
2022-11-22T09:44:45.483Z,19.40
2022-11-22T09:47:34.975Z,20.80
2022-11-22T09:50:31.488Z,18.50
2022-11-22T09:53:05.187Z,17.90
2022-11-22T09:55:52.677Z,18.60
2022-11-22T09:58:51.980Z,17.20
2022-11-22T10:01:29.092Z,17.60
2022-11-22T10:04:29.266Z,17.90
2022-11-22T10:07:06.523Z,19.20
2022-11-22T10:09:51.552Z,18.30
2022-11-22T10:12:23.397Z,18.70
2022-11-22T10:15:30.963Z,18.70
2022-11-22T10:18:11.979Z,17.00
2022-11-22T10:20:48.461Z,18.00
2022-11-22T10:23:26.137Z,19.00
2022-11-22T10:25:59.906Z,17.90
2022-11-22T10:29:07.297Z,18.40
2022-11-22T10:31:44.784Z,18.60
2022-11-22T10:34:35.343Z,17.50
2022-11-22T10:37:28.450Z,19.70
2022-11-22T10:39:59.573Z,19.40
2022-11-22T10:43:20.780Z,18.80
2022-11-22T10:46:17.010Z,16.40
2022-11-22T10:49:00.086Z,19.00
2022-11-22T10:51:58.008Z,17.60
2022-11-22T10:54:36.117Z,16.40
2022-11-22T10:57:19.679Z,13.70
2022-11-22T10:59:55.540Z,18.20
2022-11-22T11:02:32.970Z,11.90
2022-11-22T11:05:05.845Z,15.30
2022-11-22T11:07:35.062Z,18.80
2022-11-22T11:10:27.547Z,18.60
2022-11-22T11:13:14.843Z,16.30
2022-11-22T11:15:52.702Z,19.30
2022-11-22T11:19:01.586Z,19.20
2022-11-22T11:21:30.053Z,17.90
2022-11-22T11:23:58.491Z,17.90
2022-11-22T11:26:34.863Z,20.30
2022-11-22T11:29:18.454Z,17.90
2022-11-22T11:31:52.542Z,16.60
2022-11-22T11:34:23.073Z,17.90
2022-11-22T11:36:54.627Z,19.80
2022-11-22T11:39:45.957Z,21.00
2022-11-22T11:42:32.202Z,21.20
2022-11-22T11:45:33.392Z,19.50
2022-11-22T11:48:01.910Z,19.50
2022-11-22T11:50:33.296Z,21.50
2022-11-22T11:53:07.211Z,22.30
2022-11-22T11:58:19.949Z,20.60
2022-11-22T12:00:48.534Z,19.60
2022-11-22T12:03:20.112Z,23.80
2022-11-22T12:05:48.592Z,20.70
2022-11-22T12:08:31.385Z,23.80
2022-11-22T12:11:06.498Z,24.80
2022-11-22T12:16:54.853Z,20.60
2022-11-22T12:19:29.288Z,22.80
2022-11-22T12:22:48.095Z,23.00
2022-11-22T12:28:23.735Z,22.20
2022-11-22T12:31:01.348Z,22.50
2022-11-22T12:33:40.310Z,24.10
2022-11-22T12:36:41.287Z,23.30
2022-11-22T12:39:16.223Z,25.10
2022-11-22T12:41:48.836Z,22.80
2022-11-22T12:44:21.042Z,23.10
2022-11-22T12:46:56.765Z,25.60
2022-11-22T12:49:48.173Z,22.30
2022-11-22T12:52:16.465Z,21.00
2022-11-22T12:55:09.646Z,24.50
2022-11-22T12:57:46.859Z,24.30
2022-11-22T13:00:19.060Z,23.70
2022-11-22T13:02:54.510Z,23.50
2022-11-22T13:05:30.835Z,23.70
2022-11-22T13:08:35.704Z,22.70
2022-11-22T13:13:42.657Z,21.80
2022-11-22T13:16:13.070Z,23.70
2022-11-22T13:18:56.716Z,25.30
2022-11-22T13:21:50.107Z,25.40
2022-11-22T13:24:46.715Z,28.00
2022-11-22T13:27:25.325Z,23.90
2022-11-22T13:29:58.690Z,24.40
2022-11-22T13:32:34.969Z,29.50
2022-11-22T13:35:12.459Z,26.00
2022-11-22T13:37:53.780Z,23.80
2022-11-22T13:40:30.414Z,28.80
2022-11-22T13:43:21.208Z,27.90
2022-11-22T13:46:02.069Z,28.00
2022-11-22T13:48:42.516Z,24.30
2022-11-22T13:51:15.638Z,26.30
2022-11-22T13:53:46.198Z,23.60
2022-11-22T13:56:17.528Z,25.70
2022-11-22T13:58:51.296Z,25.60
2022-11-22T14:01:40.540Z,25.90
2022-11-22T14:04:17.769Z,27.90
2022-11-22T14:06:49.771Z,24.20
2022-11-22T14:09:40.809Z,26.20
2022-11-22T14:12:31.984Z,25.20
2022-11-22T14:15:29.875Z,22.70
2022-11-22T14:18:07.047Z,23.20
2022-11-22T14:20:40.288Z,24.30
2022-11-22T14:23:11.616Z,25.10
2022-11-22T14:25:43.004Z,26.50
2022-11-22T14:28:20.587Z,28.80
2022-11-22T14:30:55.595Z,26.30
2022-11-22T14:33:31.220Z,28.70
2022-11-22T14:36:09.852Z,31.80
2022-11-22T14:38:40.417Z,52.30
2022-11-22T14:41:27.364Z,43.20
2022-11-22T14:44:07.650Z,41.40
2022-11-22T14:46:54.951Z,30.10
2022-11-22T14:49:33.584Z,28.20
2022-11-22T14:52:02.768Z,31.00
2022-11-22T14:54:48.800Z,32.30
2022-11-22T14:57:21.217Z,28.70
2022-11-22T15:00:18.470Z,26.90
2022-11-22T15:03:07.750Z,27.90
2022-11-22T15:09:10.284Z,28.50
2022-11-22T15:09:16.278Z,30.50
2022-11-22T15:11:52.619Z,28.50
2022-11-22T15:14:30.267Z,26.70
2022-11-22T15:58:14.098Z,29.20
2022-11-22T16:00:45.438Z,34.10
2022-11-22T16:03:27.254Z,36.00
2022-11-22T16:06:11.780Z,35.70
2022-11-22T16:08:58.319Z,33.80
2022-11-22T16:11:31.831Z,30.90
2022-11-22T16:14:01.292Z,35.00
2022-11-22T16:16:35.245Z,33.10
2022-11-22T16:19:24.878Z,31.80
2022-11-22T16:22:02.099Z,35.60
2022-11-22T16:24:32.740Z,36.20
2022-11-22T16:27:12.698Z,34.20
2022-11-22T16:29:51.838Z,33.40
2022-11-22T16:32:20.837Z,34.20
2022-11-22T16:35:21.762Z,31.60
2022-11-22T16:37:48.254Z,34.30
2022-11-22T16:40:18.676Z,23.40
2022-11-22T16:42:48.878Z,34.10
2022-11-22T16:45:20.773Z,30.00
2022-11-22T16:48:03.904Z,32.80
2022-11-22T16:50:41.949Z,33.10
2022-11-22T16:53:16.840Z,33.10
2022-11-22T16:55:45.651Z,33.30
2022-11-22T16:58:17.818Z,35.40
2022-11-22T17:00:50.878Z,33.60
2022-11-22T17:03:30.557Z,33.00
2022-11-22T17:05:59.432Z,36.80
2022-11-22T17:08:29.340Z,36.40
2022-11-22T17:10:58.552Z,34.90
2022-11-22T17:13:29.420Z,35.20
2022-11-22T17:15:59.219Z,36.80
2022-11-22T17:18:29.446Z,35.00
2022-11-22T17:21:00.155Z,39.30
2022-11-22T17:23:43.535Z,34.30
2022-11-22T17:26:13.281Z,36.10
2022-11-22T17:28:43.112Z,34.90
2022-11-22T17:31:20.167Z,37.00
2022-11-22T17:33:52.740Z,37.50
2022-11-22T17:36:35.782Z,32.20
2022-11-22T17:41:50.984Z,32.00
2022-11-22T17:45:02.851Z,38.00
2022-11-22T17:47:33.258Z,34.80
2022-11-22T17:50:03.725Z,33.50
2022-11-22T17:52:33.490Z,36.20
2022-11-22T17:55:06.278Z,37.20
2022-11-22T17:57:37.956Z,34.60
2022-11-22T18:00:10.941Z,36.80
2022-11-22T18:02:47.043Z,32.70
2022-11-22T18:05:17.377Z,37.60
2022-11-22T18:07:48.319Z,37.10
2022-11-22T18:10:17.959Z,37.10
2022-11-22T18:13:13.516Z,39.30
2022-11-22T18:15:39.550Z,35.20
2022-11-22T18:18:21.938Z,34.90
2022-11-22T18:21:01.670Z,37.20
2022-11-22T18:23:36.737Z,35.80
2022-11-22T18:29:39.094Z,40.50
2022-11-22T18:31:56.072Z,32.40
2022-11-22T18:34:26.600Z,37.70
2022-11-22T18:37:01.277Z,36.50
2022-11-22T18:39:39.273Z,35.00
2022-11-22T18:42:15.847Z,39.30
2022-11-22T18:44:46.367Z,34.10
2022-11-22T18:47:16.703Z,34.90
2022-11-22T18:52:50.212Z,37.10
2022-11-22T18:55:20.521Z,35.90
2022-11-22T18:58:03.706Z,34.10
2022-11-22T19:00:33.365Z,40.20
2022-11-22T19:03:05.848Z,36.70
2022-11-22T19:05:35.495Z,35.60
2022-11-22T19:08:04.144Z,32.10
2022-11-22T19:10:34.184Z,33.40
2022-11-22T19:13:04.582Z,33.10
2022-11-22T19:15:36.472Z,37.90
2022-11-22T19:18:10.804Z,32.60
2022-11-22T19:20:54.705Z,31.30
2022-11-22T19:23:24.782Z,34.00
2022-11-22T19:25:54.667Z,32.20
2022-11-22T19:28:32.704Z,36.10
2022-11-22T19:31:10.673Z,35.40
2022-11-22T19:33:43.445Z,34.70
2022-11-22T19:36:18.416Z,35.80
2022-11-22T19:38:48.611Z,29.10
2022-11-22T19:41:22.526Z,37.80
2022-11-22T19:43:52.923Z,37.20
2022-11-22T19:46:24.320Z,41.00
2022-11-22T19:48:57.375Z,34.80
2022-11-22T19:51:29.909Z,38.50
2022-11-22T19:54:05.390Z,35.20
2022-11-22T19:56:39.126Z,32.30
2022-11-22T19:59:16.062Z,32.40
2022-11-22T20:01:47.068Z,32.70
2022-11-22T20:04:17.792Z,31.50
2022-11-22T20:06:50.120Z,34.50
2022-11-22T20:09:30.097Z,30.00
2022-11-22T20:12:00.099Z,30.40
2022-11-22T20:14:30.328Z,30.40
2022-11-22T20:17:00.616Z,30.00
2022-11-22T20:19:34.205Z,31.50
2022-11-22T20:22:04.507Z,29.00
2022-11-22T20:24:35.236Z,33.40
2022-11-22T20:27:06.200Z,26.90
2022-11-22T20:29:38.169Z,29.30
2022-11-22T20:32:08.438Z,32.90
2022-11-22T20:34:37.741Z,30.80
2022-11-22T20:37:07.792Z,30.20
2022-11-22T20:39:38.463Z,30.40
2022-11-22T20:42:32.973Z,32.00
2022-11-22T20:44:59.274Z,29.00
2022-11-22T20:47:31.420Z,33.20
2022-11-22T20:50:00.912Z,31.00
2022-11-22T20:52:30.512Z,34.10
2022-11-22T20:55:04.807Z,35.70
2022-11-22T20:57:35.703Z,34.50
2022-11-22T21:00:05.547Z,31.40
2022-11-22T21:02:35.488Z,31.00
2022-11-22T21:05:04.468Z,29.60
2022-11-22T21:07:34.338Z,30.60
2022-11-22T21:10:05.233Z,32.00
2022-11-22T21:12:34.030Z,31.70
2022-11-22T21:15:03.113Z,31.90
2022-11-22T21:17:56.045Z,30.40
2022-11-22T21:20:21.837Z,30.00
2022-11-22T21:22:54.364Z,32.80
2022-11-22T21:25:23.325Z,34.50
2022-11-22T21:27:52.456Z,32.40
2022-11-22T21:30:22.034Z,33.90
2022-11-22T21:32:51.022Z,33.60
2022-11-22T21:35:19.462Z,34.60
2022-11-22T21:37:47.891Z,34.20
2022-11-22T21:40:16.355Z,35.10
2022-11-22T21:43:10.200Z,29.40
2022-11-22T21:45:38.681Z,34.80
2022-11-22T21:48:07.888Z,34.20
2022-11-22T21:50:36.326Z,35.50
2022-11-22T21:53:05.334Z,29.50
2022-11-22T21:55:33.794Z,32.80
2022-11-22T21:58:02.456Z,35.20
2022-11-22T22:00:30.980Z,28.80
2022-11-22T22:02:59.343Z,33.70
2022-11-22T22:05:27.860Z,36.70
2022-11-22T22:07:56.250Z,34.10
2022-11-22T22:10:24.752Z,32.10
2022-11-22T22:12:53.153Z,30.30
2022-11-22T22:15:21.648Z,28.30
2022-11-22T22:17:53.867Z,32.40
2022-11-22T22:20:23.172Z,26.40
2022-11-22T22:22:51.609Z,31.60
2022-11-22T22:25:20.010Z,28.90
2022-11-22T22:27:48.531Z,33.00
2022-11-22T22:30:17.208Z,33.70
2022-11-22T22:32:45.536Z,32.80
2022-11-22T22:35:13.899Z,34.20
2022-11-22T22:37:42.284Z,35.00
2022-11-22T22:40:11.023Z,31.40
2022-11-22T22:42:40.546Z,32.30
2022-11-22T22:45:11.257Z,32.70
2022-11-22T22:47:39.701Z,33.90
2022-11-22T22:50:08.378Z,35.90
2022-11-22T22:52:36.918Z,32.30
2022-11-22T22:55:05.755Z,34.20
2022-11-22T22:57:34.158Z,35.90
2022-11-22T23:00:02.713Z,37.60
2022-11-22T23:02:31.122Z,36.70
2022-11-22T23:05:13.287Z,31.00
2022-11-22T23:07:44.009Z,31.40
2022-11-22T23:10:12.641Z,40.30
2022-11-22T23:12:41.186Z,35.40
2022-11-22T23:15:10.055Z,38.20
2022-11-22T23:17:38.386Z,32.80
2022-11-22T23:20:07.272Z,37.10
2022-11-22T23:22:35.656Z,35.30
2022-11-22T23:25:04.365Z,36.50
2022-11-22T23:27:33.167Z,34.60
2022-11-22T23:30:01.635Z,35.40
2022-11-22T23:32:31.845Z,36.60
2022-11-22T23:35:00.255Z,37.40
2022-11-22T23:37:28.633Z,26.90
2022-11-22T23:39:57.102Z,36.40
2022-11-22T23:42:25.436Z,33.00
2022-11-22T23:45:19.095Z,38.40
2022-11-22T23:47:51.099Z,32.70
2022-11-22T23:50:20.363Z,33.00
2022-11-22T23:52:54.394Z,33.40
2022-11-22T23:55:22.748Z,36.60
2022-11-22T23:57:51.158Z,35.80
